Time,TemperatureF,DewpointF,PressureIn,WindDirection,WindDirectionDegrees,WindSpeedMPH,WindSpeedGustMPH,Humidity,HourlyPrecipIn,Conditions,Clouds,dailyrainin,SoftwareType,DateUTC
2013-03-14 00:00:00,26.4,24.1,30.21,SE,138,12.0,15.7,91,0.00,,OVC090,0.00,VWS V14.01,2013-03-14 05:00:00,
2013-03-14 00:10:00,26.6,24.3,30.20,SE,143,13.0,18.9,91,0.00,,OVC090,0.00,VWS V14.01,2013-03-14 05:10:00,
2013-03-14 00:15:00,26.8,24.5,30.21,SSE,151,15.0,18.9,91,0.00,,OVC090,0.00,VWS V14.01,2013-03-14 05:15:00,
2013-03-14 00:20:00,26.9,24.6,30.20,SE,144,14.0,17.8,91,0.00,,OVC090,0.00,VWS V14.01,2013-03-14 05:20:00,
2013-03-14 00:25:00,27.0,24.7,30.20,SSE,149,11.0,15.7,91,0.00,,OVC120,0.00,VWS V14.01,2013-03-14 05:25:00,
2013-03-14 00:30:00,27.1,24.8,30.20,SSE,148,15.0,17.8,91,0.00,,OVC120,0.00,VWS V14.01,2013-03-14 05:30:00,
2013-03-14 00:35:00,27.1,24.8,30.20,SE,138,15.0,17.8,91,0.00,,OVC120,0.00,VWS V14.01,2013-03-14 05:35:00,
2013-03-14 00:40:00,27.0,24.7,30.19,SE,139,12.0,17.8,91,0.00,,OVC120,0.00,VWS V14.01,2013-03-14 05:40:00,
2013-03-14 00:45:00,27.0,24.7,30.19,SE,127,12.0,16.8,91,0.00,,OVC100,0.00,VWS V14.01,2013-03-14 05:45:00,
2013-03-14 00:50:00,26.9,24.6,30.19,SE,134,14.0,16.8,91,0.00,,OVC100,0.00,VWS V14.01,2013-03-14 05:50:00,
2013-03-14 00:55:00,27.0,24.7,30.19,SE,124,11.0,16.8,91,0.00,,OVC100,0.00,VWS V14.01,2013-03-14 05:55:00,
2013-03-14 01:00:00,27.1,24.8,30.18,ESE,121,14.0,16.8,91,0.00,,OVC100,0.00,VWS V14.01,2013-03-14 06:00:00,
2013-03-14 01:10:00,27.0,24.7,30.19,ESE,122,11.0,15.7,91,0.00,,OVC070,0.00,VWS V14.01,2013-03-14 06:10:00,
2013-03-14 01:15:00,27.0,25.0,30.19,SE,125,14.0,14.7,92,0.00,,OVC070,0.00,VWS V14.01,2013-03-14 06:15:00,
2013-03-14 01:20:00,27.0,25.0,30.19,SE,128,14.0,15.7,92,0.00,,OVC070,0.00,VWS V14.01,2013-03-14 06:20:00,
2013-03-14 01:25:00,27.1,24.8,30.19,SE,128,12.0,15.7,91,0.00,,OVC080,0.00,VWS V14.01,2013-03-14 06:25:00,
2013-03-14 01:30:00,27.0,25.0,30.19,ESE,123,13.0,15.7,92,0.00,,OVC080,0.00,VWS V14.01,2013-03-14 06:30:00,
2013-03-14 01:35:00,27.0,25.0,30.19,ESE,117,12.0,14.7,92,0.00,,OVC080,0.00,VWS V14.01,2013-03-14 06:35:00,
2013-03-14 01:40:00,27.0,25.0,30.19,SE,128,12.0,14.7,92,0.00,,OVC080,0.00,VWS V14.01,2013-03-14 06:40:00,
2013-03-14 01:45:00,27.1,25.1,30.19,ESE,117,12.0,17.8,92,0.00,,OVC070,0.00,VWS V14.01,2013-03-14 06:45:00,
2013-03-14 01:50:00,27.0,25.0,30.18,SE,129,11.0,16.8,92,0.00,,OVC070,0.00,VWS V14.01,2013-03-14 06:50:00,
2013-03-14 01:55:00,27.0,25.0,30.17,ESE,121,17.0,18.9,92,0.00,,OVC070,0.00,VWS V14.01,2013-03-14 06:55:00,
2013-03-14 02:00:00,27.0,25.0,30.17,SE,127,14.0,19.9,92,0.00,,OVC070,0.00,VWS V14.01,2013-03-14 07:00:00,
2013-03-14 02:05:00,26.9,24.9,30.17,SE,134,14.0,17.8,92,0.00,,OVC060,0.00,VWS V14.01,2013-03-14 07:05:00,
2013-03-14 02:10:00,27.0,25.0,30.17,ESE,111,16.0,18.9,92,0.00,,OVC060,0.00,VWS V14.01,2013-03-14 07:10:00,
2013-03-14 02:15:00,27.0,25.0,30.16,ESE,121,14.0,18.9,92,0.00,,OVC060,0.00,VWS V14.01,2013-03-14 07:15:00,
2013-03-14 02:20:00,27.0,25.0,30.17,SE,125,16.0,21.0,92,0.00,,OVC060,0.00,VWS V14.01,2013-03-14 07:20:00,
2013-03-14 02:25:00,27.0,24.7,30.16,SE,136,15.0,19.9,91,0.00,,OVC050,0.00,VWS V14.01,2013-03-14 07:25:00,
2013-03-14 02:30:00,27.0,24.7,30.16,ESE,116,19.0,19.9,91,0.00,,OVC050,0.00,VWS V14.01,2013-03-14 07:30:00,
2013-03-14 02:35:00,27.0,24.7,30.15,SE,136,18.0,19.9,91,0.00,,OVC050,0.00,VWS V14.01,2013-03-14 07:35:00,
2013-03-14 02:40:00,27.0,24.7,30.15,SE,128,15.0,22.0,91,0.00,,OVC050,0.00,VWS V14.01,2013-03-14 07:40:00,
2013-03-14 02:45:00,27.0,25.0,30.15,ESE,123,16.0,19.9,92,0.00,,,0.00,VWS V14.01,2013-03-14 07:45:00,
2013-03-14 02:50:00,27.0,24.7,30.15,SE,129,19.0,22.0,91,0.00,,,0.00,VWS V14.01,2013-03-14 07:50:00,
2013-03-14 02:55:00,27.0,25.0,30.15,ESE,121,17.0,21.0,92,0.00,,,0.00,VWS V14.01,2013-03-14 07:55:00,
2013-03-14 03:00:00,27.1,25.1,30.15,SE,130,18.0,21.0,92,0.00,,,0.00,VWS V14.01,2013-03-14 08:00:00,
2013-03-14 03:05:00,27.2,25.2,30.13,SE,131,19.0,24.1,92,0.00,,OVC065,0.00,VWS V14.01,2013-03-14 08:05:00,
2013-03-14 03:10:00,27.2,25.5,30.12,SE,130,21.0,24.1,93,0.00,,OVC065,0.00,VWS V14.01,2013-03-14 08:10:00,
2013-03-14 03:15:00,27.2,25.2,30.12,SE,136,19.0,24.1,92,0.00,,OVC065,0.00,VWS V14.01,2013-03-14 08:15:00,
2013-03-14 03:20:00,27.3,25.3,30.11,SE,136,21.0,23.1,92,0.00,,OVC065,0.00,VWS V14.01,2013-03-14 08:20:00,
2013-03-14 03:25:00,27.2,25.2,30.10,SE,132,20.0,27.3,92,0.00,,OVC060,0.00,VWS V14.01,2013-03-14 08:25:00,
2013-03-14 03:30:00,27.2,25.2,30.09,SE,129,18.0,24.1,92,0.00,,OVC060,0.00,VWS V14.01,2013-03-14 08:30:00,
2013-03-14 03:35:00,27.4,25.4,30.09,SE,130,21.0,24.1,92,0.00,,OVC060,0.00,VWS V14.01,2013-03-14 08:35:00,
2013-03-14 03:45:00,27.5,25.5,30.09,SE,130,20.0,25.2,92,0.00,,OVC090,0.00,VWS V14.01,2013-03-14 08:45:00,
2013-03-14 03:50:00,27.5,25.5,30.11,SE,129,16.0,22.0,92,0.00,,OVC090,0.00,VWS V14.01,2013-03-14 08:50:00,
2013-03-14 03:55:00,27.7,25.7,30.12,ESE,117,14.0,17.8,92,0.00,,OVC090,0.00,VWS V14.01,2013-03-14 08:55:00,
2013-03-14 04:00:00,27.8,25.8,30.13,ESE,117,12.0,15.7,92,0.00,,OVC090,0.00,VWS V14.01,2013-03-14 09:00:00,
2013-03-14 04:05:00,27.8,25.8,30.14,ESE,119,12.0,15.7,92,0.00,,OVC090,0.00,VWS V14.01,2013-03-14 09:05:00,
2013-03-14 04:10:00,27.8,25.5,30.14,SE,127,12.0,14.7,91,0.00,,OVC090,0.00,VWS V14.01,2013-03-14 09:10:00,
2013-03-14 04:15:00,27.8,25.8,30.14,ESE,123,10.0,15.7,92,0.00,,OVC090,0.00,VWS V14.01,2013-03-14 09:15:00,
2013-03-14 04:20:00,27.9,25.9,30.13,SE,132,12.0,15.7,92,0.00,,OVC090,0.00,VWS V14.01,2013-03-14 09:20:00,
2013-03-14 04:25:00,28.1,26.1,30.12,SE,138,17.0,18.9,92,0.00,,OVC090,0.00,VWS V14.01,2013-03-14 09:25:00,
2013-03-14 04:30:00,28.2,26.4,30.12,ESE,123,15.0,18.9,93,0.00,,OVC090,0.00,VWS V14.01,2013-03-14 09:30:00,
2013-03-14 04:35:00,28.2,26.4,30.10,SE,125,14.0,19.9,93,0.00,,OVC090,0.00,VWS V14.01,2013-03-14 09:35:00,
2013-03-14 04:40:00,28.2,26.4,30.07,ESE,123,20.0,25.2,93,0.00,,OVC090,0.00,VWS V14.01,2013-03-14 09:40:00,
2013-03-14 04:45:00,28.1,26.1,30.08,SE,142,15.0,24.1,92,0.00,,OVC080,0.00,VWS V14.01,2013-03-14 09:45:00,
2013-03-14 04:50:00,28.1,26.1,30.07,SE,138,16.0,24.1,92,0.00,,OVC080,0.00,VWS V14.01,2013-03-14 09:50:00,
2013-03-14 04:55:00,28.0,26.0,30.06,SE,134,22.0,25.2,92,0.00,,OVC080,0.00,VWS V14.01,2013-03-14 09:55:00,
2013-03-14 05:00:00,27.9,25.9,30.06,SE,137,19.0,25.2,92,0.00,,OVC080,0.00,VWS V14.01,2013-03-14 10:00:00,
2013-03-14 05:05:00,27.9,25.9,30.05,SE,143,20.0,24.1,92,0.00,,OVC048,0.00,VWS V14.01,2013-03-14 10:05:00,
2013-03-14 05:10:00,28.0,26.0,30.05,SSE,155,18.0,25.2,92,0.00,,OVC048,0.00,VWS V14.01,2013-03-14 10:10:00,
2013-03-14 05:15:00,28.1,25.8,30.07,South,170,14.0,23.1,91,0.00,,OVC048,0.00,VWS V14.01,2013-03-14 10:15:00,
2013-03-14 05:20:00,28.1,25.8,30.07,SE,144,16.0,18.9,91,0.00,,OVC048,0.00,VWS V14.01,2013-03-14 10:20:00,
2013-03-14 05:25:00,28.1,25.8,30.07,SE,126,11.0,18.9,91,0.00,,BKN110,0.00,VWS V14.01,2013-03-14 10:25:00,
2013-03-14 05:30:00,27.9,25.6,30.08,SE,125,12.0,15.7,91,0.00,,BKN110,0.00,VWS V14.01,2013-03-14 10:30:00,
2013-03-14 05:35:00,27.9,25.6,30.07,SE,138,13.0,16.8,91,0.00,,BKN110,0.00,VWS V14.01,2013-03-14 10:35:00,
2013-03-14 05:40:00,27.7,25.4,30.08,SE,137,13.0,16.8,91,0.00,,BKN110,0.00,VWS V14.01,2013-03-14 10:40:00,
2013-03-14 05:45:00,27.5,25.2,30.08,SE,139,10.0,14.7,91,0.00,,BKN100,0.00,VWS V14.01,2013-03-14 10:45:00,
2013-03-14 05:50:00,27.4,25.1,30.08,SSE,153,9.0,12.6,91,0.00,,BKN100,0.00,VWS V14.01,2013-03-14 10:50:00,
2013-03-14 05:55:00,27.2,24.9,30.08,SSE,148,8.0,12.6,91,0.00,,BKN100,0.00,VWS V14.01,2013-03-14 10:55:00,
2013-03-14 06:00:00,26.9,24.6,30.08,SSE,148,10.0,12.6,91,0.00,,BKN100,0.00,VWS V14.01,2013-03-14 11:00:00,
2013-03-14 06:05:00,26.6,24.3,30.08,SE,136,10.0,11.5,91,0.00,,SCT100,0.00,VWS V14.01,2013-03-14 11:05:00,
2013-03-14 06:10:00,26.2,23.9,30.08,SE,133,7.0,10.5,91,0.00,,SCT100,0.00,VWS V14.01,2013-03-14 11:10:00,
2013-03-14 06:15:00,25.9,23.6,30.08,SE,128,9.0,9.4,91,0.00,,SCT100,0.00,VWS V14.01,2013-03-14 11:15:00,
2013-03-14 06:20:00,26.0,24.0,30.08,ESE,109,6.0,10.5,92,0.00,,SCT100,0.00,VWS V14.01,2013-03-14 11:20:00,
2013-03-14 06:25:00,25.8,23.8,30.09,ESE,123,7.0,8.4,92,0.00,,SCT085,0.00,VWS V14.01,2013-03-14 11:25:00,
2013-03-14 06:30:00,25.5,23.5,30.08,ESE,118,9.0,9.4,92,0.00,,SCT085,0.00,VWS V14.01,2013-03-14 11:30:00,
2013-03-14 06:35:00,25.4,23.4,30.08,ESE,119,7.0,9.4,92,0.00,,SCT085,0.00,VWS V14.01,2013-03-14 11:35:00,
2013-03-14 06:40:00,25.0,23.0,30.08,ESE,118,7.0,9.4,92,0.00,,SCT085,0.00,VWS V14.01,2013-03-14 11:40:00,
2013-03-14 06:45:00,24.6,22.6,30.09,ESE,120,7.0,9.4,92,0.00,,CLR,0.00,VWS V14.01,2013-03-14 11:45:00,
2013-03-14 06:50:00,24.4,22.4,30.08,ESE,123,7.0,9.4,92,0.00,,CLR,0.00,VWS V14.01,2013-03-14 11:50:00,
2013-03-14 06:55:00,24.4,22.7,30.08,ESE,113,7.0,8.4,93,0.00,,CLR,0.00,VWS V14.01,2013-03-14 11:55:00,
2013-03-14 07:00:00,24.3,22.6,30.08,East,101,6.0,9.4,93,0.00,,CLR,0.00,VWS V14.01,2013-03-14 12:00:00,
2013-03-14 07:05:00,24.1,22.4,30.09,East,96,6.0,7.3,93,0.00,,CLR,0.00,VWS V14.01,2013-03-14 12:05:00,
2013-03-14 07:10:00,23.7,22.0,30.09,ESE,107,6.0,7.3,93,0.00,,CLR,0.00,VWS V14.01,2013-03-14 12:10:00,
2013-03-14 07:15:00,23.4,21.7,30.09,ESE,109,4.0,7.3,93,0.00,,CLR,0.00,VWS V14.01,2013-03-14 12:15:00,
2013-03-14 07:20:00,23.1,21.4,30.09,ESE,109,3.0,4.2,93,0.00,,CLR,0.00,VWS V14.01,2013-03-14 12:20:00,
2013-03-14 07:25:00,22.8,21.1,30.10,East,90,4.0,6.3,93,0.00,,CLR,0.00,VWS V14.01,2013-03-14 12:25:00,
2013-03-14 07:30:00,22.3,20.3,30.09,East,100,6.0,6.3,92,0.00,,CLR,0.00,VWS V14.01,2013-03-14 12:30:00,
2013-03-14 07:35:00,22.2,20.5,30.09,ESE,109,6.0,7.3,93,0.00,,CLR,0.00,VWS V14.01,2013-03-14 12:35:00,
2013-03-14 07:40:00,22.2,20.5,30.09,ESE,107,6.0,7.3,93,0.00,,CLR,0.00,VWS V14.01,2013-03-14 12:40:00,
2013-03-14 07:45:00,21.9,20.2,30.09,East,101,6.0,7.3,93,0.00,,CLR,0.00,VWS V14.01,2013-03-14 12:45:00,
2013-03-14 07:50:00,21.9,20.2,30.09,ESE,105,4.0,6.3,93,0.00,,CLR,0.00,VWS V14.01,2013-03-14 12:50:00,
2013-03-14 07:55:00,21.8,20.1,30.09,ESE,110,3.0,6.3,93,0.00,,CLR,0.00,VWS V14.01,2013-03-14 12:55:00,
2013-03-14 08:00:00,21.8,20.1,30.09,ESE,117,4.0,6.3,93,0.00,,CLR,0.00,VWS V14.01,2013-03-14 13:00:00,
2013-03-14 08:05:00,22.0,20.3,30.09,ESE,117,0.0,3.1,93,0.00,,CLR,0.00,VWS V14.01,2013-03-14 13:05:00,
2013-03-14 08:10:00,21.9,20.2,30.10,ESE,102,3.0,4.2,93,0.00,,CLR,0.00,VWS V14.01,2013-03-14 13:10:00,
2013-03-14 08:15:00,21.7,19.7,30.10,East,90,6.0,6.3,92,0.00,,CLR,0.00,VWS V14.01,2013-03-14 13:15:00,
2013-03-14 08:20:00,21.2,19.2,30.10,East,80,4.0,6.3,92,0.00,,CLR,0.00,VWS V14.01,2013-03-14 13:20:00,
2013-03-14 08:25:00,21.3,19.6,30.10,East,80,3.0,5.2,93,0.00,,CLR,0.00,VWS V14.01,2013-03-14 13:25:00,
2013-03-14 08:30:00,21.6,19.9,30.10,East,81,2.0,5.2,93,0.00,,CLR,0.00,VWS V14.01,2013-03-14 13:30:00,
2013-03-14 08:35:00,21.7,20.0,30.10,East,90,6.0,7.3,93,0.00,,CLR,0.00,VWS V14.01,2013-03-14 13:35:00,
2013-03-14 08:40:00,21.8,20.1,30.10,East,90,6.0,7.3,93,0.00,,CLR,0.00,VWS V14.01,2013-03-14 13:40:00,
2013-03-14 08:45:00,21.9,20.2,30.10,East,87,5.0,7.3,93,0.00,,CLR,0.00,VWS V14.01,2013-03-14 13:45:00,
2013-03-14 08:50:00,22.0,20.3,30.10,East,86,4.0,7.3,93,0.00,,CLR,0.00,VWS V14.01,2013-03-14 13:50:00,
2013-03-14 08:55:00,22.0,20.3,30.10,East,86,4.0,4.2,93,0.00,,CLR,0.00,VWS V14.01,2013-03-14 13:55:00,
2013-03-14 09:00:00,22.0,20.3,30.10,East,86,4.0,4.2,93,0.00,,CLR,0.00,VWS V14.01,2013-03-14 14:00:00,
2013-03-14 09:05:00,22.0,20.3,30.10,East,86,4.0,4.2,93,0.00,,CLR,0.00,VWS V14.01,2013-03-14 14:05:00,
2013-03-14 09:10:00,22.0,20.3,30.11,East,86,4.0,4.2,93,0.00,,CLR,0.00,VWS V14.01,2013-03-14 14:10:00,
2013-03-14 09:15:00,22.0,20.3,30.11,East,86,4.0,4.2,93,0.00,,CLR,0.00,VWS V14.01,2013-03-14 14:15:00,
2013-03-14 09:20:00,22.0,20.3,30.11,East,86,4.0,4.2,93,0.00,,CLR,0.00,VWS V14.01,2013-03-14 14:20:00,
2013-03-14 09:25:00,22.0,20.3,30.11,East,86,4.0,4.2,93,0.00,,CLR,0.00,VWS V14.01,2013-03-14 14:25:00,
2013-03-14 09:30:00,22.0,20.3,30.11,East,86,4.0,4.2,93,0.00,,CLR,0.00,VWS V14.01,2013-03-14 14:30:00,
2013-03-14 09:35:00,24.4,22.4,30.11,East,94,9.0,10.5,92,0.00,,CLR,0.00,VWS V14.01,2013-03-14 14:35:00,
2013-03-14 09:40:00,24.7,22.7,30.11,East,96,10.0,11.5,92,0.00,,CLR,0.00,VWS V14.01,2013-03-14 14:40:00,
2013-03-14 09:45:00,24.7,22.7,30.11,East,89,9.0,10.5,92,0.00,,CLR,0.00,VWS V14.01,2013-03-14 14:45:00,
2013-03-14 09:50:00,24.8,22.8,30.11,East,82,8.0,10.5,92,0.00,,CLR,0.00,VWS V14.01,2013-03-14 14:50:00,
2013-03-14 09:55:00,25.0,23.0,30.12,East,85,7.0,9.4,92,0.00,,CLR,0.00,VWS V14.01,2013-03-14 14:55:00,
2013-03-14 10:00:00,25.2,23.2,30.12,East,88,7.0,8.4,92,0.00,,CLR,0.00,VWS V14.01,2013-03-14 15:00:00,
2013-03-14 10:10:00,25.8,23.8,30.12,East,98,8.0,9.4,92,0.00,,CLR,0.00,VWS V14.01,2013-03-14 15:10:00,
2013-03-14 10:15:00,26.0,23.7,30.12,East,90,9.0,9.4,91,0.00,,CLR,0.00,VWS V14.01,2013-03-14 15:15:00,
2013-03-14 10:20:00,26.2,23.9,30.12,East,97,7.0,9.4,91,0.00,,CLR,0.00,VWS V14.01,2013-03-14 15:20:00,
2013-03-14 10:25:00,26.6,24.3,30.12,East,101,7.0,8.4,91,0.00,,CLR,0.00,VWS V14.01,2013-03-14 15:25:00,
2013-03-14 10:30:00,26.6,24.3,30.12,East,95,7.0,9.4,91,0.00,,CLR,0.00,VWS V14.01,2013-03-14 15:30:00,
2013-03-14 10:35:00,26.7,24.4,30.12,East,96,9.0,9.4,91,0.00,,CLR,0.00,VWS V14.01,2013-03-14 15:35:00,
2013-03-14 10:40:00,26.7,24.4,30.11,East,93,9.0,10.5,91,0.00,,CLR,0.00,VWS V14.01,2013-03-14 15:40:00,
2013-03-14 10:45:00,26.7,24.4,30.11,East,93,10.0,11.5,91,0.00,,CLR,0.00,VWS V14.01,2013-03-14 15:45:00,
2013-03-14 10:50:00,26.8,24.5,30.11,East,90,11.0,11.5,91,0.00,,CLR,0.00,VWS V14.01,2013-03-14 15:50:00,
2013-03-14 10:55:00,26.9,24.6,30.11,East,93,10.0,12.6,91,0.00,,CLR,0.00,VWS V14.01,2013-03-14 15:55:00,
2013-03-14 11:00:00,27.2,25.2,30.10,East,92,8.0,11.5,92,0.00,,CLR,0.00,VWS V14.01,2013-03-14 16:00:00,
2013-03-14 11:05:00,27.3,25.0,30.10,East,86,9.0,11.5,91,0.00,,CLR,0.00,VWS V14.01,2013-03-14 16:05:00,
2013-03-14 11:10:00,27.5,25.2,30.11,East,89,7.0,11.5,91,0.00,,CLR,0.00,VWS V14.01,2013-03-14 16:10:00,
2013-03-14 11:15:00,27.8,25.5,30.11,East,96,7.0,9.4,91,0.00,,CLR,0.00,VWS V14.01,2013-03-14 16:15:00,
2013-03-14 11:20:00,28.1,25.8,30.12,ESE,107,7.0,8.4,91,0.00,,CLR,0.00,VWS V14.01,2013-03-14 16:20:00,
2013-03-14 11:25:00,28.3,25.8,30.12,East,92,6.0,8.4,90,0.00,,CLR,0.00,VWS V14.01,2013-03-14 16:25:00,
2013-03-14 11:30:00,28.5,26.0,30.12,East,96,6.0,8.4,90,0.00,,CLR,0.00,VWS V14.01,2013-03-14 16:30:00,
2013-03-14 11:35:00,28.7,26.1,30.12,East,94,4.0,8.4,90,0.00,,CLR,0.00,VWS V14.01,2013-03-14 16:35:00,
2013-03-14 11:40:00,29.0,26.4,30.13,East,88,4.0,7.3,90,0.00,,CLR,0.00,VWS V14.01,2013-03-14 16:40:00,
2013-03-14 11:50:00,29.2,26.6,30.12,East,84,7.0,9.4,90,0.00,,CLR,0.00,VWS V14.01,2013-03-14 16:50:00,
2013-03-14 12:00:00,29.5,26.9,30.12,East,98,8.0,9.4,90,0.00,,CLR,0.00,VWS V14.01,2013-03-14 17:00:00,
2013-03-14 12:05:00,29.7,27.1,30.11,East,97,8.0,9.4,90,0.00,,CLR,0.00,VWS V14.01,2013-03-14 17:05:00,
2013-03-14 12:10:00,29.9,27.3,30.12,East,95,8.0,9.4,90,0.00,,CLR,0.00,VWS V14.01,2013-03-14 17:10:00,
2013-03-14 12:15:00,30.0,27.4,30.12,East,98,7.0,9.4,90,0.00,,CLR,0.00,VWS V14.01,2013-03-14 17:15:00,
2013-03-14 12:25:00,30.5,27.6,30.13,East,96,4.0,7.3,89,0.00,,CLR,0.00,VWS V14.01,2013-03-14 17:25:00,
2013-03-14 12:30:00,30.7,27.9,30.13,East,96,6.0,6.3,89,0.00,,CLR,0.00,VWS V14.01,2013-03-14 17:30:00,
2013-03-14 12:35:00,30.9,28.0,30.13,East,90,6.0,7.3,89,0.00,,CLR,0.00,VWS V14.01,2013-03-14 17:35:00,
2013-03-14 12:40:00,30.8,28.0,30.13,East,85,5.0,7.3,89,0.00,,CLR,0.00,VWS V14.01,2013-03-14 17:40:00,
2013-03-14 12:45:00,30.9,28.0,30.13,East,85,4.0,7.3,89,0.00,,CLR,0.00,VWS V14.01,2013-03-14 17:45:00,
2013-03-14 12:50:00,31.1,28.0,30.13,East,87,3.0,5.2,88,0.00,,CLR,0.00,VWS V14.01,2013-03-14 17:50:00,
2013-03-14 12:55:00,31.4,28.3,30.15,East,87,0.0,3.1,88,0.00,,CLR,0.00,VWS V14.01,2013-03-14 17:55:00,
2013-03-14 13:00:00,32.2,28.8,30.15,East,87,1.0,1.0,87,0.00,,CLR,0.00,VWS V14.01,2013-03-14 18:00:00,
2013-03-14 13:05:00,32.4,28.4,30.14,East,87,3.0,4.2,85,0.00,,CLR,0.00,VWS V14.01,2013-03-14 18:05:00,
2013-03-14 13:15:00,31.7,28.3,30.14,East,86,4.0,5.2,87,0.00,,CLR,0.00,VWS V14.01,2013-03-14 18:15:00,
2013-03-14 13:20:00,31.6,28.2,30.13,East,88,7.0,7.3,87,0.00,,CLR,0.00,VWS V14.01,2013-03-14 18:20:00,
2013-03-14 13:25:00,31.5,28.4,30.13,East,88,8.0,9.4,88,0.00,,CLR,0.00,VWS V14.01,2013-03-14 18:25:00,
2013-03-14 13:35:00,31.4,28.5,30.12,East,95,9.0,10.5,89,0.00,,CLR,0.00,VWS V14.01,2013-03-14 18:35:00,
2013-03-14 13:40:00,31.5,28.6,30.12,East,98,9.0,10.5,89,0.00,,CLR,0.00,VWS V14.01,2013-03-14 18:40:00,
2013-03-14 13:45:00,31.6,28.7,30.12,ESE,103,7.0,10.5,89,0.00,,CLR,0.00,VWS V14.01,2013-03-14 18:45:00,
2013-03-14 13:55:00,32.1,29.0,30.13,ESE,103,2.0,4.2,88,0.00,,CLR,0.00,VWS V14.01,2013-03-14 18:55:00,
2013-03-14 14:00:00,32.5,29.1,30.14,ESE,103,0.0,2.1,87,0.00,,CLR,0.00,VWS V14.01,2013-03-14 19:00:00,
2013-03-14 14:05:00,33.2,29.8,30.14,ESE,103,0.0,0.0,87,0.00,,CLR,0.00,VWS V14.01,2013-03-14 19:05:00,
2013-03-14 14:10:00,33.9,29.9,30.14,ESE,105,0.0,0.0,85,0.00,,CLR,0.00,VWS V14.01,2013-03-14 19:10:00,
2013-03-14 14:15:00,34.7,30.4,30.14,ESE,105,0.0,0.0,84,0.00,,CLR,0.00,VWS V14.01,2013-03-14 19:15:00,
2013-03-14 14:20:00,35.0,30.1,30.14,ESE,105,0.0,0.0,82,0.00,,CLR,0.00,VWS V14.01,2013-03-14 19:20:00,
2013-03-14 14:25:00,34.9,29.7,30.14,SSE,153,0.0,3.1,81,0.00,,CLR,0.00,VWS V14.01,2013-03-14 19:25:00,
2013-03-14 14:30:00,34.6,30.0,30.13,SSE,153,0.0,0.0,83,0.00,,CLR,0.00,VWS V14.01,2013-03-14 19:30:00,
2013-03-14 14:35:00,34.6,29.7,30.14,South,186,0.0,3.1,82,0.00,,CLR,0.00,VWS V14.01,2013-03-14 19:35:00,
2013-03-14 14:40:00,34.6,30.0,30.14,South,191,2.0,2.1,83,0.00,,CLR,0.00,VWS V14.01,2013-03-14 19:40:00,
2013-03-14 14:50:00,34.1,29.8,30.14,WSW,258,0.0,3.1,84,0.00,,CLR,0.00,VWS V14.01,2013-03-14 19:50:00,
2013-03-14 14:55:00,34.2,29.6,30.14,West,269,0.0,3.1,83,0.00,,CLR,0.00,VWS V14.01,2013-03-14 19:55:00,
2013-03-14 15:00:00,34.4,30.1,30.14,West,269,0.0,1.0,84,0.00,,CLR,0.00,VWS V14.01,2013-03-14 20:00:00,
2013-03-14 15:05:00,35.0,30.4,30.14,West,269,0.0,0.0,83,0.00,,CLR,0.00,VWS V14.01,2013-03-14 20:05:00,
2013-03-14 15:10:00,35.3,30.4,30.14,West,269,0.0,0.0,82,0.00,,CLR,0.00,VWS V14.01,2013-03-14 20:10:00,
2013-03-14 15:15:00,35.4,30.5,30.13,NNW,347,0.0,1.0,82,0.00,,CLR,0.00,VWS V14.01,2013-03-14 20:15:00,
2013-03-14 15:20:00,35.5,30.3,30.12,NNW,347,0.0,0.0,81,0.00,,CLR,0.00,VWS V14.01,2013-03-14 20:20:00,
2013-03-14 15:25:00,35.6,30.4,30.12,NNW,347,0.0,0.0,81,0.00,,CLR,0.00,VWS V14.01,2013-03-14 20:25:00,
2013-03-14 15:30:00,35.1,30.2,30.12,NNW,347,0.0,0.0,82,0.00,,CLR,0.00,VWS V14.01,2013-03-14 20:30:00,
2013-03-14 15:35:00,34.8,29.9,30.12,NNW,347,0.0,0.0,82,0.00,,CLR,0.00,VWS V14.01,2013-03-14 20:35:00,
2013-03-14 15:40:00,34.5,29.9,30.12,NE,45,0.0,0.0,83,0.00,,CLR,0.00,VWS V14.01,2013-03-14 20:40:00,
2013-03-14 15:45:00,34.2,29.6,30.12,NE,45,0.0,0.0,83,0.00,,CLR,0.00,VWS V14.01,2013-03-14 20:45:00,
2013-03-14 15:50:00,34.4,30.1,30.12,NE,45,0.0,0.0,84,0.00,,CLR,0.00,VWS V14.01,2013-03-14 20:50:00,
2013-03-14 15:55:00,34.4,29.8,30.11,NE,45,0.0,0.0,83,0.00,,CLR,0.00,VWS V14.01,2013-03-14 20:55:00,
2013-03-14 16:00:00,34.3,30.0,30.11,NE,45,0.0,0.0,84,0.00,,CLR,0.00,VWS V14.01,2013-03-14 21:00:00,
2013-03-14 16:10:00,34.2,30.2,30.11,NE,45,0.0,0.0,85,0.00,,CLR,0.00,VWS V14.01,2013-03-14 21:10:00,
2013-03-14 16:15:00,34.4,30.4,30.11,NE,45,0.0,0.0,85,0.00,,CLR,0.00,VWS V14.01,2013-03-14 21:15:00,
2013-03-14 16:20:00,34.3,30.3,30.11,NE,45,0.0,0.0,85,0.00,,CLR,0.00,VWS V14.01,2013-03-14 21:20:00,
2013-03-14 16:25:00,34.1,30.1,30.11,NE,46,0.0,0.0,85,0.00,,CLR,0.00,VWS V14.01,2013-03-14 21:25:00,
2013-03-14 16:30:00,34.0,30.3,30.11,ENE,78,4.0,4.2,86,0.00,,CLR,0.00,VWS V14.01,2013-03-14 21:30:00,
2013-03-14 16:40:00,33.5,30.0,30.10,East,90,3.0,6.3,87,0.00,,CLR,0.00,VWS V14.01,2013-03-14 21:40:00,
2013-03-14 16:45:00,33.6,30.1,30.11,East,92,0.0,6.3,87,0.00,,CLR,0.00,VWS V14.01,2013-03-14 21:45:00,
2013-03-14 16:50:00,33.9,30.2,30.11,East,92,0.0,0.0,86,0.00,,CLR,0.00,VWS V14.01,2013-03-14 21:50:00,
2013-03-14 16:55:00,34.3,30.6,30.11,East,92,0.0,0.0,86,0.00,,CLR,0.00,VWS V14.01,2013-03-14 21:55:00,
2013-03-14 17:00:00,34.6,30.6,30.11,East,92,0.0,0.0,85,0.00,,CLR,0.00,VWS V14.01,2013-03-14 22:00:00,
2013-03-14 17:05:00,35.0,31.0,30.12,East,92,0.0,0.0,85,0.00,,CLR,0.00,VWS V14.01,2013-03-14 22:05:00,
2013-03-14 17:10:00,35.3,30.7,30.11,East,92,0.0,0.0,83,0.00,,CLR,0.00,VWS V14.01,2013-03-14 22:10:00,
2013-03-14 17:15:00,35.8,30.9,30.12,East,92,0.0,0.0,82,0.00,,CLR,0.00,VWS V14.01,2013-03-14 22:15:00,
2013-03-14 17:25:00,35.9,31.0,30.11,East,92,0.0,0.0,82,0.00,,CLR,0.00,VWS V14.01,2013-03-14 22:25:00,
2013-03-14 17:30:00,35.9,31.5,30.11,East,92,0.0,0.0,84,0.00,,CLR,0.00,VWS V14.01,2013-03-14 22:30:00,
2013-03-14 17:40:00,35.3,31.0,30.10,East,92,0.0,0.0,84,0.00,,CLR,0.00,VWS V14.01,2013-03-14 22:40:00,
2013-03-14 17:45:00,34.8,30.8,30.11,East,92,0.0,0.0,85,0.00,,CLR,0.00,VWS V14.01,2013-03-14 22:45:00,
2013-03-14 17:50:00,34.6,30.9,30.11,South,170,0.0,0.0,86,0.00,,CLR,0.00,VWS V14.01,2013-03-14 22:50:00,
2013-03-14 17:55:00,34.4,30.6,30.11,SSW,212,0.0,1.0,86,0.00,,CLR,0.00,VWS V14.01,2013-03-14 22:55:00,
2013-03-14 18:00:00,34.3,30.8,30.11,SSW,212,0.0,0.0,87,0.00,,CLR,0.00,VWS V14.01,2013-03-14 23:00:00,
2013-03-14 18:05:00,34.2,30.5,30.11,SSW,212,0.0,0.0,86,0.00,,CLR,0.00,VWS V14.01,2013-03-14 23:05:00,
2013-03-14 18:10:00,34.2,30.7,30.11,SSW,212,0.0,0.0,87,0.00,,CLR,0.00,VWS V14.01,2013-03-14 23:10:00,
2013-03-14 18:15:00,33.8,30.4,30.11,SSW,212,0.0,0.0,87,0.00,,CLR,0.00,VWS V14.01,2013-03-14 23:15:00,
2013-03-14 18:20:00,33.5,30.0,30.11,SSW,212,0.0,0.0,87,0.00,,CLR,0.00,VWS V14.01,2013-03-14 23:20:00,
2013-03-14 18:25:00,33.3,30.1,30.11,SSW,212,0.0,0.0,88,0.00,,CLR,0.00,VWS V14.01,2013-03-14 23:25:00,
2013-03-14 18:30:00,33.1,29.9,30.11,SSW,212,0.0,0.0,88,0.00,,CLR,0.00,VWS V14.01,2013-03-14 23:30:00,
2013-03-14 18:35:00,33.0,29.8,30.11,SSW,212,0.0,0.0,88,0.00,,CLR,0.00,VWS V14.01,2013-03-14 23:35:00,
2013-03-14 18:40:00,32.8,29.9,30.11,SSW,212,0.0,0.0,89,0.00,,CLR,0.00,VWS V14.01,2013-03-14 23:40:00,
2013-03-14 18:45:00,32.6,29.7,30.11,SSW,212,0.0,0.0,89,0.00,,CLR,0.00,VWS V14.01,2013-03-14 23:45:00,
2013-03-14 18:50:00,32.5,29.6,30.11,SSW,212,0.0,0.0,89,0.00,,CLR,0.00,VWS V14.01,2013-03-14 23:50:00,
2013-03-14 18:55:00,32.4,29.5,30.10,SSW,212,0.0,0.0,89,0.00,,CLR,0.00,VWS V14.01,2013-03-14 23:55:00,
2013-03-14 19:00:00,32.2,29.3,30.10,SSW,212,0.0,0.0,89,0.00,,CLR,0.00,VWS V14.01,2013-03-15 00:00:00,
2013-03-14 19:05:00,32.2,29.3,30.10,SSW,212,0.0,0.0,89,0.00,,CLR,0.00,VWS V14.01,2013-03-15 00:05:00,
2013-03-14 19:10:00,32.0,29.4,30.10,SSW,212,0.0,0.0,90,0.00,,CLR,0.00,VWS V14.01,2013-03-15 00:10:00,
2013-03-14 19:15:00,31.8,29.2,30.10,SSW,212,0.0,0.0,90,0.00,,CLR,0.00,VWS V14.01,2013-03-15 00:15:00,
2013-03-14 19:20:00,31.5,28.9,30.10,SSW,211,0.0,0.0,90,0.00,,CLR,0.00,VWS V14.01,2013-03-15 00:20:00,
2013-03-14 19:25:00,31.5,29.2,30.10,SSW,211,0.0,0.0,91,0.00,,CLR,0.00,VWS V14.01,2013-03-15 00:25:00,
2013-03-14 19:30:00,31.4,28.8,30.09,SE,141,3.0,3.1,90,0.00,,CLR,0.00,VWS V14.01,2013-03-15 00:30:00,
2013-03-14 19:40:00,30.6,28.3,30.08,SE,141,0.0,0.0,91,0.00,,CLR,0.00,VWS V14.01,2013-03-15 00:40:00,
2013-03-14 19:50:00,30.2,28.2,30.08,SE,141,2.0,4.2,92,0.00,,CLR,0.00,VWS V14.01,2013-03-15 00:50:00,
2013-03-14 20:00:00,29.9,28.1,30.08,SSE,151,1.0,3.1,93,0.00,,CLR,0.00,VWS V14.01,2013-03-15 01:00:00,
2013-03-14 20:05:00,29.9,28.1,30.08,SSE,153,0.0,2.1,93,0.00,,CLR,0.00,VWS V14.01,2013-03-15 01:05:00,
2013-03-14 20:10:00,30.3,28.5,30.07,SSE,157,1.0,2.1,93,0.00,,CLR,0.00,VWS V14.01,2013-03-15 01:10:00,
2013-03-14 20:15:00,30.5,28.7,30.08,SSE,157,0.0,3.1,93,0.00,,CLR,0.00,VWS V14.01,2013-03-15 01:15:00,
2013-03-14 20:20:00,30.5,28.5,30.08,SSE,157,0.0,0.0,92,0.00,,CLR,0.00,VWS V14.01,2013-03-15 01:20:00,
2013-03-14 20:25:00,30.4,28.4,30.07,SSE,157,1.0,1.0,92,0.00,,CLR,0.00,VWS V14.01,2013-03-15 01:25:00,
2013-03-14 20:30:00,30.4,28.4,30.07,South,191,3.0,5.2,92,0.00,,CLR,0.00,VWS V14.01,2013-03-15 01:30:00,
2013-03-14 20:35:00,30.2,28.2,30.07,South,191,4.0,5.2,92,0.00,,CLR,0.00,VWS V14.01,2013-03-15 01:35:00,
2013-03-14 20:40:00,30.1,28.1,30.07,South,191,4.0,5.2,92,0.00,,CLR,0.00,VWS V14.01,2013-03-15 01:40:00,
2013-03-14 20:50:00,29.8,28.0,30.07,South,191,3.0,4.2,93,0.00,,CLR,0.00,VWS V14.01,2013-03-15 01:50:00,
2013-03-14 20:55:00,30.0,28.2,30.07,South,191,0.0,3.1,93,0.00,,CLR,0.00,VWS V14.01,2013-03-15 01:55:00,
2013-03-14 21:00:00,29.9,27.9,30.06,South,191,0.0,0.0,92,0.00,,CLR,0.00,VWS V14.01,2013-03-15 02:00:00,
2013-03-14 21:05:00,29.8,27.8,30.06,South,191,0.0,0.0,92,0.00,,CLR,0.00,VWS V14.01,2013-03-15 02:05:00,
2013-03-14 21:10:00,29.8,28.0,30.05,South,191,0.0,0.0,93,0.00,,CLR,0.00,VWS V14.01,2013-03-15 02:10:00,
2013-03-14 21:20:00,29.8,28.0,30.06,South,191,2.0,4.2,93,0.00,,CLR,0.00,VWS V14.01,2013-03-15 02:20:00,
2013-03-14 21:25:00,29.7,27.9,30.05,South,191,0.0,2.1,93,0.00,,CLR,0.00,VWS V14.01,2013-03-15 02:25:00,
2013-03-14 21:30:00,29.8,28.0,30.05,South,191,0.0,1.0,93,0.00,,CLR,0.00,VWS V14.01,2013-03-15 02:30:00,
2013-03-14 21:35:00,29.8,27.8,30.05,South,191,0.0,3.1,92,0.00,,CLR,0.00,VWS V14.01,2013-03-15 02:35:00,
2013-03-14 21:45:00,29.4,27.4,30.05,South,191,0.0,0.0,92,0.00,,CLR,0.00,VWS V14.01,2013-03-15 02:45:00,
2013-03-14 21:50:00,29.0,27.0,30.05,South,191,0.0,0.0,92,0.00,,CLR,0.00,VWS V14.01,2013-03-15 02:50:00,
2013-03-14 21:55:00,29.1,27.3,30.05,South,191,2.0,4.2,93,0.00,,CLR,0.00,VWS V14.01,2013-03-15 02:55:00,
2013-03-14 22:00:00,29.1,27.3,30.04,South,191,0.0,4.2,93,0.00,,CLR,0.00,VWS V14.01,2013-03-15 03:00:00,
2013-03-14 22:05:00,29.0,27.2,30.04,South,188,0.0,0.0,93,0.00,,CLR,0.00,VWS V14.01,2013-03-15 03:05:00,
2013-03-14 22:10:00,29.2,27.4,30.04,South,188,0.0,3.1,93,0.00,,CLR,0.00,VWS V14.01,2013-03-15 03:10:00,
2013-03-14 22:15:00,29.3,27.5,30.04,South,188,0.0,1.0,93,0.00,,CLR,0.00,VWS V14.01,2013-03-15 03:15:00,
2013-03-14 22:20:00,29.3,27.5,30.04,South,188,0.0,0.0,93,0.00,,CLR,0.00,VWS V14.01,2013-03-15 03:20:00,
2013-03-14 22:25:00,29.4,27.6,30.04,South,188,0.0,0.0,93,0.00,,CLR,0.00,VWS V14.01,2013-03-15 03:25:00,
2013-03-14 22:30:00,29.2,27.2,30.05,South,189,0.0,0.0,92,0.00,,CLR,0.00,VWS V14.01,2013-03-15 03:30:00,
2013-03-14 22:35:00,28.8,26.8,30.05,South,191,0.0,0.0,92,0.00,,CLR,0.00,VWS V14.01,2013-03-15 03:35:00,
2013-03-14 22:40:00,28.7,26.9,30.05,South,191,0.0,0.0,93,0.00,,CLR,0.00,VWS V14.01,2013-03-15 03:40:00,
2013-03-14 22:45:00,28.4,26.4,30.05,South,191,0.0,0.0,92,0.00,,CLR,0.00,VWS V14.01,2013-03-15 03:45:00,
2013-03-14 22:50:00,27.9,25.9,30.05,South,191,0.0,0.0,92,0.00,,CLR,0.00,VWS V14.01,2013-03-15 03:50:00,
2013-03-14 22:55:00,27.6,25.6,30.05,South,191,0.0,0.0,92,0.00,,CLR,0.00,VWS V14.01,2013-03-15 03:55:00,
2013-03-14 23:00:00,27.5,25.8,30.05,South,191,0.0,0.0,93,0.00,,CLR,0.00,VWS V14.01,2013-03-15 04:00:00,
2013-03-14 23:05:00,27.5,25.8,30.05,South,191,0.0,0.0,93,0.00,,CLR,0.00,VWS V14.01,2013-03-15 04:05:00,
2013-03-14 23:10:00,27.5,25.8,30.05,South,191,0.0,0.0,93,0.00,,CLR,0.00,VWS V14.01,2013-03-15 04:10:00,
2013-03-14 23:15:00,27.5,25.8,30.05,South,191,0.0,0.0,93,0.00,,CLR,0.00,VWS V14.01,2013-03-15 04:15:00,
2013-03-14 23:20:00,27.5,25.8,30.04,South,191,0.0,0.0,93,0.00,,CLR,0.00,VWS V14.01,2013-03-15 04:20:00,
2013-03-14 23:25:00,27.5,25.8,30.05,South,191,0.0,0.0,93,0.00,,,0.00,VWS V14.01,2013-03-15 04:25:00,
2013-03-14 23:30:00,27.5,25.8,30.04,South,191,0.0,0.0,93,0.00,,,0.00,VWS V14.01,2013-03-15 04:30:00,
2013-03-14 23:35:00,27.5,25.8,30.04,South,191,0.0,0.0,93,0.00,,,0.00,VWS V14.01,2013-03-15 04:35:00,
2013-03-14 23:40:00,27.5,25.8,30.04,South,191,0.0,0.0,93,0.00,,,0.00,VWS V14.01,2013-03-15 04:40:00,
2013-03-14 23:45:00,26.7,25.5,30.03,South,191,0.0,0.0,95,0.00,,,0.00,VWS V14.01,2013-03-15 04:45:00,
2013-03-14 23:50:00,26.9,25.7,30.03,South,191,0.0,0.0,95,0.00,,,0.00,VWS V14.01,2013-03-15 04:50:00,
2013-03-14 23:55:00,26.3,24.8,30.02,NE,51,0.0,0.0,94,0.00,,,0.00,VWS V14.01,2013-03-15 04:55:00,